sensor_id;sensor_type;location;lat;lon;timestamp;pressure;altitude;pressure_sealevel;temperature;humidity
15382;BME280;7789;51.364;12.358;2024-03-22T00:02:47;100957.41;;;9.57;100.00
15382;BME280;7789;51.364;12.358;2024-03-22T00:07:54;100953.84;;;9.46;100.00
15382;BME280;7789;51.364;12.358;2024-03-22T00:12:57;100952.59;;;9.39;100.00
15382;BME280;7789;51.364;12.358;2024-03-22T00:18:04;100946.22;;;9.30;100.00
15382;BME280;7789;51.364;12.358;2024-03-22T00:23:09;100940.78;;;9.21;100.00
15382;BME280;7789;51.364;12.358;2024-03-22T00:28:12;100946.41;;;9.15;100.00
15382;BME280;7789;51.364;12.358;2024-03-22T00:33:16;100931.06;;;9.11;100.00
15382;BME280;7789;51.364;12.358;2024-03-22T00:38:19;100928.97;;;9.03;100.00
15382;BME280;7789;51.364;12.358;2024-03-22T00:43:26;100918.84;;;8.99;100.00
15382;BME280;7789;51.364;12.358;2024-03-22T00:48:36;100919.16;;;8.94;100.00
15382;BME280;7789;51.364;12.358;2024-03-22T00:53:38;100921.94;;;8.91;100.00
15382;BME280;7789;51.364;12.358;2024-03-22T00:58:40;100915.28;;;8.87;100.00
15382;BME280;7789;51.364;12.358;2024-03-22T01:03:44;100902.44;;;8.84;100.00
15382;BME280;7789;51.364;12.358;2024-03-22T01:08:48;100893.16;;;8.80;100.00
15382;BME280;7789;51.364;12.358;2024-03-22T01:13:54;100875.00;;;8.79;100.00
15382;BME280;7789;51.364;12.358;2024-03-22T01:18:58;100882.00;;;8.78;100.00
15382;BME280;7789;51.364;12.358;2024-03-22T01:24:00;100867.31;;;8.77;100.00
15382;BME280;7789;51.364;12.358;2024-03-22T01:29:03;100859.28;;;8.80;100.00
15382;BME280;7789;51.364;12.358;2024-03-22T01:34:07;100860.66;;;8.86;100.00
15382;BME280;7789;51.364;12.358;2024-03-22T01:39:10;100857.91;;;8.87;100.00
15382;BME280;7789;51.364;12.358;2024-03-22T01:44:15;100844.81;;;8.89;100.00
15382;BME280;7789;51.364;12.358;2024-03-22T01:49:19;100835.09;;;8.91;100.00
15382;BME280;7789;51.364;12.358;2024-03-22T01:54:22;100821.22;;;8.90;100.00
15382;BME280;7789;51.364;12.358;2024-03-22T01:59:26;100814.88;;;8.94;100.00
15382;BME280;7789;51.364;12.358;2024-03-22T02:04:30;100808.50;;;8.98;100.00
15382;BME280;7789;51.364;12.358;2024-03-22T02:09:32;100810.91;;;9.01;100.00
15382;BME280;7789;51.364;12.358;2024-03-22T02:14:35;100800.25;;;9.04;100.00
15382;BME280;7789;51.364;12.358;2024-03-22T02:19:38;100800.03;;;9.07;100.00
15382;BME280;7789;51.364;12.358;2024-03-22T02:24:42;100780.66;;;9.11;100.00
15382;BME280;7789;51.364;12.358;2024-03-22T02:29:44;100775.22;;;9.14;100.00
15382;BME280;7789;51.364;12.358;2024-03-22T02:34:47;100768.13;;;9.16;100.00
15382;BME280;7789;51.364;12.358;2024-03-22T02:39:51;100763.41;;;9.21;100.00
15382;BME280;7789;51.364;12.358;2024-03-22T02:44:53;100763.09;;;9.25;100.00
15382;BME280;7789;51.364;12.358;2024-03-22T02:49:56;100758.38;;;9.30;100.00
15382;BME280;7789;51.364;12.358;2024-03-22T02:55:00;100757.34;;;9.33;100.00
15382;BME280;7789;51.364;12.358;2024-03-22T03:00:02;100747.63;;;9.35;100.00
15382;BME280;7789;51.364;12.358;2024-03-22T03:05:06;100757.03;;;9.37;100.00
15382;BME280;7789;51.364;12.358;2024-03-22T03:10:10;100744.09;;;9.36;100.00
15382;BME280;7789;51.364;12.358;2024-03-22T03:15:12;100738.88;;;9.36;100.00
15382;BME280;7789;51.364;12.358;2024-03-22T03:20:15;100738.00;;;9.35;100.00
15382;BME280;7789;51.364;12.358;2024-03-22T03:25:19;100729.06;;;9.39;100.00
15382;BME280;7789;51.364;12.358;2024-03-22T03:30:22;100721.31;;;9.38;100.00
15382;BME280;7789;51.364;12.358;2024-03-22T03:35:24;100716.09;;;9.38;100.00
15382;BME280;7789;51.364;12.358;2024-03-22T03:40:29;100711.38;;;9.43;100.00
15382;BME280;7789;51.364;12.358;2024-03-22T03:45:32;100710.44;;;9.44;100.00
15382;BME280;7789;51.364;12.358;2024-03-22T03:50:35;100695.53;;;9.46;100.00
15382;BME280;7789;51.364;12.358;2024-03-22T03:55:56;100695.41;;;9.47;100.00
15382;BME280;7789;51.364;12.358;2024-03-22T04:00:58;100687.69;;;9.46;100.00
15382;BME280;7789;51.364;12.358;2024-03-22T04:06:01;100675.47;;;9.46;100.00
15382;BME280;7789;51.364;12.358;2024-03-22T04:11:05;100679.88;;;9.46;100.00
15382;BME280;7789;51.364;12.358;2024-03-22T04:16:07;100659.00;;;9.46;100.00
15382;BME280;7789;51.364;12.358;2024-03-22T04:21:10;100654.59;;;9.46;100.00
15382;BME280;7789;51.364;12.358;2024-03-22T04:26:15;100659.72;;;9.48;100.00
15382;BME280;7789;51.364;12.358;2024-03-22T04:31:17;100657.22;;;9.46;100.00
15382;BME280;7789;51.364;12.358;2024-03-22T04:36:20;100642.16;;;9.50;100.00
15382;BME280;7789;51.364;12.358;2024-03-22T04:41:24;100626.75;;;9.47;100.00
15382;BME280;7789;51.364;12.358;2024-03-22T04:46:26;100620.19;;;9.41;100.00
15382;BME280;7789;51.364;12.358;2024-03-22T04:51:29;100626.13;;;9.43;100.00
15382;BME280;7789;51.364;12.358;2024-03-22T04:56:33;100615.47;;;9.46;100.00
15382;BME280;7789;51.364;12.358;2024-03-22T05:01:35;100608.69;;;9.44;100.00
15382;BME280;7789;51.364;12.358;2024-03-22T05:06:38;100613.09;;;9.43;100.00
15382;BME280;7789;51.364;12.358;2024-03-22T05:11:41;100613.78;;;9.45;100.00
15382;BME280;7789;51.364;12.358;2024-03-22T05:16:44;100607.88;;;9.43;100.00
15382;BME280;7789;51.364;12.358;2024-03-22T05:21:46;100600.84;;;9.44;100.00
15382;BME280;7789;51.364;12.358;2024-03-22T05:26:50;100610.25;;;9.46;100.00
15382;BME280;7789;51.364;12.358;2024-03-22T05:31:55;100599.16;;;9.55;100.00
15382;BME280;7789;51.364;12.358;2024-03-22T05:36:58;100600.56;;;9.59;100.00
15382;BME280;7789;51.364;12.358;2024-03-22T05:42:03;100601.19;;;9.63;100.00
15382;BME280;7789;51.364;12.358;2024-03-22T05:47:05;100589.09;;;9.73;100.00
15382;BME280;7789;51.364;12.358;2024-03-22T05:52:08;100582.50;;;9.80;100.00
15382;BME280;7789;51.364;12.358;2024-03-22T05:57:11;100577.84;;;9.83;100.00
15382;BME280;7789;51.364;12.358;2024-03-22T06:02:14;100578.13;;;9.91;100.00
15382;BME280;7789;51.364;12.358;2024-03-22T06:07:17;100579.31;;;9.98;100.00
15382;BME280;7789;51.364;12.358;2024-03-22T06:12:25;100570.22;;;10.15;100.00
15382;BME280;7789;51.364;12.358;2024-03-22T06:17:32;100569.97;;;10.29;100.00
15382;BME280;7789;51.364;12.358;2024-03-22T06:22:35;100570.94;;;10.39;100.00
15382;BME280;7789;51.364;12.358;2024-03-22T06:27:44;100567.38;;;10.51;100.00
15382;BME280;7789;51.364;12.358;2024-03-22T06:32:47;100551.66;;;10.73;100.00
15382;BME280;7789;51.364;12.358;2024-03-22T06:37:49;100553.03;;;10.88;100.00
15382;BME280;7789;51.364;12.358;2024-03-22T06:42:55;100542.56;;;10.99;99.71
15382;BME280;7789;51.364;12.358;2024-03-22T06:48:00;100539.19;;;11.07;99.17
15382;BME280;7789;51.364;12.358;2024-03-22T06:53:03;100536.97;;;11.23;98.11
15382;BME280;7789;51.364;12.358;2024-03-22T06:58:07;100521.94;;;11.36;97.21
15382;BME280;7789;51.364;12.358;2024-03-22T07:03:09;100507.59;;;11.51;97.32
15382;BME280;7789;51.364;12.358;2024-03-22T07:08:12;100508.97;;;11.66;96.15
15382;BME280;7789;51.364;12.358;2024-03-22T07:13:16;100504.75;;;11.75;95.19
15382;BME280;7789;51.364;12.358;2024-03-22T07:18:18;100504.59;;;11.76;94.98
15382;BME280;7789;51.364;12.358;2024-03-22T07:23:21;100487.00;;;11.88;94.21
15382;BME280;7789;51.364;12.358;2024-03-22T07:28:25;100495.59;;;11.99;93.36
15382;BME280;7789;51.364;12.358;2024-03-22T07:33:28;100496.47;;;12.09;92.34
15382;BME280;7789;51.364;12.358;2024-03-22T07:38:30;100513.31;;;12.16;92.38
15382;BME280;7789;51.364;12.358;2024-03-22T07:43:35;100511.31;;;12.29;92.20
15382;BME280;7789;51.364;12.358;2024-03-22T07:48:37;100508.72;;;12.39;91.05
15382;BME280;7789;51.364;12.358;2024-03-22T07:53:40;100503.94;;;12.53;91.33
15382;BME280;7789;51.364;12.358;2024-03-22T07:58:44;100494.31;;;12.82;91.68
15382;BME280;7789;51.364;12.358;2024-03-22T08:03:47;100490.06;;;13.19;90.75
15382;BME280;7789;51.364;12.358;2024-03-22T08:08:50;100493.81;;;13.35;89.99
15382;BME280;7789;51.364;12.358;2024-03-22T08:13:54;100502.78;;;13.42;89.06
15382;BME280;7789;51.364;12.358;2024-03-22T08:19:06;100484.59;;;13.77;88.97
15382;BME280;7789;51.364;12.358;2024-03-22T08:24:09;100477.00;;;14.20;87.57
15382;BME280;7789;51.364;12.358;2024-03-22T08:29:13;100473.28;;;14.40;85.33
15382;BME280;7789;51.364;12.358;2024-03-22T08:34:17;100468.31;;;14.64;84.81
15382;BME280;7789;51.364;12.358;2024-03-22T08:39:20;100457.94;;;14.97;82.94
15382;BME280;7789;51.364;12.358;2024-03-22T08:44:24;100466.41;;;15.44;80.82
15382;BME280;7789;51.364;12.358;2024-03-22T08:49:27;100449.66;;;16.12;78.66
15382;BME280;7789;51.364;12.358;2024-03-22T08:54:35;100439.22;;;15.94;78.46
15382;BME280;7789;51.364;12.358;2024-03-22T08:59:38;100433.75;;;15.96;78.53
15382;BME280;7789;51.364;12.358;2024-03-22T09:04:41;100422.00;;;15.82;77.73
15382;BME280;7789;51.364;12.358;2024-03-22T09:09:48;100419.06;;;15.60;76.42
15382;BME280;7789;51.364;12.358;2024-03-22T09:14:52;100411.41;;;15.74;76.03
15382;BME280;7789;51.364;12.358;2024-03-22T09:19:54;100410.03;;;15.96;75.61
15382;BME280;7789;51.364;12.358;2024-03-22T09:24:56;100393.94;;;16.15;74.86
15382;BME280;7789;51.364;12.358;2024-03-22T09:30:00;100391.97;;;16.17;74.04
15382;BME280;7789;51.364;12.358;2024-03-22T09:35:06;100390.09;;;16.35;74.54
15382;BME280;7789;51.364;12.358;2024-03-22T09:40:09;100380.66;;;16.32;72.82
15382;BME280;7789;51.364;12.358;2024-03-22T09:45:14;100370.50;;;16.45;73.14
15382;BME280;7789;51.364;12.358;2024-03-22T09:50:19;100368.69;;;16.54;72.85
15382;BME280;7789;51.364;12.358;2024-03-22T09:55:26;100376.91;;;16.51;72.77
15382;BME280;7789;51.364;12.358;2024-03-22T10:00:31;100377.75;;;16.59;72.85
15382;BME280;7789;51.364;12.358;2024-03-22T10:05:34;100357.97;;;16.71;72.38
15382;BME280;7789;51.364;12.358;2024-03-22T10:10:37;100344.25;;;16.83;72.23
15382;BME280;7789;51.364;12.358;2024-03-22T10:15:40;100342.78;;;16.97;71.83
15382;BME280;7789;51.364;12.358;2024-03-22T10:20:43;100333.38;;;16.94;71.39
15382;BME280;7789;51.364;12.358;2024-03-22T10:25:45;100319.47;;;17.00;71.15
15382;BME280;7789;51.364;12.358;2024-03-22T10:30:50;100316.72;;;16.94;70.09
15382;BME280;7789;51.364;12.358;2024-03-22T10:35:53;100315.38;;;16.98;70.71
15382;BME280;7789;51.364;12.358;2024-03-22T10:40:57;100316.00;;;17.08;71.40
15382;BME280;7789;51.364;12.358;2024-03-22T10:46:03;100306.09;;;17.10;70.16
15382;BME280;7789;51.364;12.358;2024-03-22T10:51:07;100309.53;;;17.26;70.24
15382;BME280;7789;51.364;12.358;2024-03-22T10:56:11;100290.81;;;17.44;69.60
15382;BME280;7789;51.364;12.358;2024-03-22T11:01:23;100295.06;;;17.61;68.49
15382;BME280;7789;51.364;12.358;2024-03-22T11:06:26;100283.09;;;17.73;68.70
15382;BME280;7789;51.364;12.358;2024-03-22T11:11:29;100284.88;;;17.80;68.63
15382;BME280;7789;51.364;12.358;2024-03-22T11:16:42;100263.69;;;17.88;68.46
15382;BME280;7789;51.364;12.358;2024-03-22T11:21:45;100258.00;;;17.99;67.96
15382;BME280;7789;51.364;12.358;2024-03-22T11:26:48;100246.19;;;18.10;68.31
15382;BME280;7789;51.364;12.358;2024-03-22T11:31:53;100234.66;;;18.25;68.10
15382;BME280;7789;51.364;12.358;2024-03-22T11:36:55;100227.88;;;18.31;67.91
15382;BME280;7789;51.364;12.358;2024-03-22T11:42:01;100212.19;;;18.44;67.85
15382;BME280;7789;51.364;12.358;2024-03-22T11:47:06;100199.16;;;18.57;67.28
15382;BME280;7789;51.364;12.358;2024-03-22T11:52:09;100194.88;;;18.56;66.72
15382;BME280;7789;51.364;12.358;2024-03-22T11:57:12;100195.88;;;18.55;66.41
15382;BME280;7789;51.364;12.358;2024-03-22T12:02:16;100189.94;;;18.53;66.09
15382;BME280;7789;51.364;12.358;2024-03-22T12:07:26;100189.47;;;18.64;66.03
15382;BME280;7789;51.364;12.358;2024-03-22T12:12:30;100174.59;;;18.63;66.39
15382;BME280;7789;51.364;12.358;2024-03-22T12:17:39;100169.13;;;18.78;66.33
15382;BME280;7789;51.364;12.358;2024-03-22T12:22:48;100157.19;;;18.82;66.23
15382;BME280;7789;51.364;12.358;2024-03-22T12:27:51;100151.78;;;18.90;65.98
15382;BME280;7789;51.364;12.358;2024-03-22T12:32:55;100140.50;;;19.03;66.58
15382;BME280;7789;51.364;12.358;2024-03-22T12:37:58;100132.31;;;18.98;65.76
15382;BME280;7789;51.364;12.358;2024-03-22T12:43:01;100129.09;;;18.88;66.07
15382;BME280;7789;51.364;12.358;2024-03-22T12:48:08;100113.50;;;18.93;66.22
15382;BME280;7789;51.364;12.358;2024-03-22T12:53:17;100108.63;;;18.96;66.16
15382;BME280;7789;51.364;12.358;2024-03-22T12:58:20;100110.25;;;18.97;66.68
15382;BME280;7789;51.364;12.358;2024-03-22T13:03:23;100090.19;;;18.88;65.89
15382;BME280;7789;51.364;12.358;2024-03-22T13:08:26;100098.78;;;18.90;66.54
15382;BME280;7789;51.364;12.358;2024-03-22T13:13:28;100092.28;;;18.93;66.90
15382;BME280;7789;51.364;12.358;2024-03-22T13:18:32;100085.22;;;19.00;66.40
15382;BME280;7789;51.364;12.358;2024-03-22T13:23:35;100069.88;;;18.95;65.54
15382;BME280;7789;51.364;12.358;2024-03-22T13:28:38;100051.34;;;18.95;66.20
15382;BME280;7789;51.364;12.358;2024-03-22T13:33:43;100043.59;;;18.94;65.84
15382;BME280;7789;51.364;12.358;2024-03-22T13:38:45;100034.59;;;19.09;65.60
15382;BME280;7789;51.364;12.358;2024-03-22T13:43:48;100028.81;;;19.20;64.64
15382;BME280;7789;51.364;12.358;2024-03-22T13:48:52;100029.69;;;19.27;64.49
15382;BME280;7789;51.364;12.358;2024-03-22T13:53:54;100025.41;;;19.26;63.18
15382;BME280;7789;51.364;12.358;2024-03-22T13:59:07;100018.28;;;19.27;63.44
15382;BME280;7789;51.364;12.358;2024-03-22T14:04:12;100016.91;;;19.31;64.11
15382;BME280;7789;51.364;12.358;2024-03-22T14:09:16;100024.41;;;19.27;63.58
15382;BME280;7789;51.364;12.358;2024-03-22T14:14:20;100005.88;;;19.13;63.72
15382;BME280;7789;51.364;12.358;2024-03-22T14:19:25;100005.19;;;19.04;64.28
15382;BME280;7789;51.364;12.358;2024-03-22T14:24:27;100005.75;;;19.00;64.91
15382;BME280;7789;51.364;12.358;2024-03-22T14:29:30;100009.31;;;18.92;64.97
15382;BME280;7789;51.364;12.358;2024-03-22T14:34:35;99998.22;;;18.82;65.85
15382;BME280;7789;51.364;12.358;2024-03-22T14:39:38;99994.41;;;18.71;65.52
15382;BME280;7789;51.364;12.358;2024-03-22T14:44:43;99997.81;;;18.65;66.14
15382;BME280;7789;51.364;12.358;2024-03-22T14:49:51;99997.53;;;18.60;66.32
15382;BME280;7789;51.364;12.358;2024-03-22T14:54:56;99996.19;;;18.49;67.35
15382;BME280;7789;51.364;12.358;2024-03-22T14:59:59;99987.88;;;18.38;69.52
15382;BME280;7789;51.364;12.358;2024-03-22T15:05:04;99983.50;;;18.30;71.19
15382;BME280;7789;51.364;12.358;2024-03-22T15:10:07;99984.84;;;18.26;72.10
15382;BME280;7789;51.364;12.358;2024-03-22T15:15:10;99975.66;;;18.22;74.18
15382;BME280;7789;51.364;12.358;2024-03-22T15:20:14;99964.06;;;18.09;73.80
15382;BME280;7789;51.364;12.358;2024-03-22T15:25:16;99965.78;;;18.02;74.95
15382;BME280;7789;51.364;12.358;2024-03-22T15:30:19;99966.72;;;17.94;77.67
15382;BME280;7789;51.364;12.358;2024-03-22T15:35:25;99953.13;;;17.83;78.06
15382;BME280;7789;51.364;12.358;2024-03-22T15:40:31;99951.53;;;17.74;80.01
15382;BME280;7789;51.364;12.358;2024-03-22T15:45:34;99947.53;;;17.63;81.90
15382;BME280;7789;51.364;12.358;2024-03-22T15:50:43;99940.97;;;17.59;82.80
15382;BME280;7789;51.364;12.358;2024-03-22T15:55:48;99945.50;;;17.51;84.56
15382;BME280;7789;51.364;12.358;2024-03-22T16:00:50;99928.06;;;17.42;84.58
15382;BME280;7789;51.364;12.358;2024-03-22T16:05:57;99926.16;;;17.36;86.82
15382;BME280;7789;51.364;12.358;2024-03-22T16:11:00;99922.09;;;17.25;86.90
15382;BME280;7789;51.364;12.358;2024-03-22T16:16:05;99917.84;;;17.16;88.35
15382;BME280;7789;51.364;12.358;2024-03-22T16:21:09;99907.75;;;17.05;89.28
15382;BME280;7789;51.364;12.358;2024-03-22T16:26:14;99921.84;;;16.98;90.49
15382;BME280;7789;51.364;12.358;2024-03-22T16:31:18;99908.88;;;16.88;90.23
15382;BME280;7789;51.364;12.358;2024-03-22T16:36:23;99914.53;;;16.77;90.16
15382;BME280;7789;51.364;12.358;2024-03-22T16:41:25;99917.78;;;16.65;90.86
15382;BME280;7789;51.364;12.358;2024-03-22T16:46:42;99924.63;;;16.52;93.27
15382;BME280;7789;51.364;12.358;2024-03-22T16:51:45;99929.13;;;16.43;94.62
15382;BME280;7789;51.364;12.358;2024-03-22T16:56:48;99926.66;;;16.34;95.95
15382;BME280;7789;51.364;12.358;2024-03-22T17:01:53;99923.41;;;16.24;97.67
15382;BME280;7789;51.364;12.358;2024-03-22T17:06:58;99917.06;;;16.10;99.29
15382;BME280;7789;51.364;12.358;2024-03-22T17:12:01;99901.59;;;15.99;100.00
15382;BME280;7789;51.364;12.358;2024-03-22T17:17:06;99906.25;;;15.89;100.00
15382;BME280;7789;51.364;12.358;2024-03-22T17:22:16;99897.25;;;15.76;100.00
15382;BME280;7789;51.364;12.358;2024-03-22T17:27:21;99891.50;;;15.64;100.00
15382;BME280;7789;51.364;12.358;2024-03-22T17:32:28;99895.47;;;15.60;100.00
15382;BME280;7789;51.364;12.358;2024-03-22T17:37:31;99892.19;;;15.50;100.00
15382;BME280;7789;51.364;12.358;2024-03-22T17:42:40;99892.53;;;15.39;100.00
15382;BME280;7789;51.364;12.358;2024-03-22T17:47:45;99873.78;;;15.34;100.00
15382;BME280;7789;51.364;12.358;2024-03-22T17:52:51;99888.44;;;15.29;100.00
15382;BME280;7789;51.364;12.358;2024-03-22T17:57:54;99854.03;;;15.22;100.00
15382;BME280;7789;51.364;12.358;2024-03-22T18:02:58;99850.56;;;15.14;100.00
15382;BME280;7789;51.364;12.358;2024-03-22T18:08:00;99846.66;;;15.10;100.00
15382;BME280;7789;51.364;12.358;2024-03-22T18:13:08;99845.81;;;15.01;100.00
15382;BME280;7789;51.364;12.358;2024-03-22T18:18:14;99849.28;;;14.94;100.00
15382;BME280;7789;51.364;12.358;2024-03-22T18:23:19;99841.91;;;14.89;100.00
15382;BME280;7789;51.364;12.358;2024-03-22T18:28:22;99838.78;;;14.86;100.00
15382;BME280;7789;51.364;12.358;2024-03-22T18:38:32;99816.41;;;14.82;100.00
15382;BME280;7789;51.364;12.358;2024-03-22T18:43:34;99828.75;;;14.82;100.00
15382;BME280;7789;51.364;12.358;2024-03-22T18:48:40;99826.94;;;14.82;100.00
15382;BME280;7789;51.364;12.358;2024-03-22T18:53:46;99821.69;;;14.82;100.00
15382;BME280;7789;51.364;12.358;2024-03-22T18:58:52;99817.41;;;14.81;100.00
15382;BME280;7789;51.364;12.358;2024-03-22T19:04:01;99816.06;;;14.77;100.00
15382;BME280;7789;51.364;12.358;2024-03-22T19:09:03;99813.63;;;14.76;100.00
15382;BME280;7789;51.364;12.358;2024-03-22T19:14:08;99805.72;;;14.76;100.00
15382;BME280;7789;51.364;12.358;2024-03-22T19:19:20;99801.47;;;14.75;100.00
15382;BME280;7789;51.364;12.358;2024-03-22T19:24:23;99800.63;;;14.74;100.00
15382;BME280;7789;51.364;12.358;2024-03-22T19:29:31;99789.78;;;14.69;100.00
15382;BME280;7789;51.364;12.358;2024-03-22T19:34:35;99779.91;;;14.63;100.00
15382;BME280;7789;51.364;12.358;2024-03-22T19:39:40;99780.06;;;14.54;100.00
15382;BME280;7789;51.364;12.358;2024-03-22T19:44:42;99775.81;;;14.45;100.00
15382;BME280;7789;51.364;12.358;2024-03-22T19:49:47;99766.59;;;14.33;100.00
15382;BME280;7789;51.364;12.358;2024-03-22T19:54:52;99759.06;;;14.22;100.00
15382;BME280;7789;51.364;12.358;2024-03-22T19:59:55;99759.31;;;14.11;100.00
15382;BME280;7789;51.364;12.358;2024-03-22T20:04:59;99747.16;;;14.10;100.00
15382;BME280;7789;51.364;12.358;2024-03-22T20:10:04;99754.72;;;14.05;100.00
15382;BME280;7789;51.364;12.358;2024-03-22T20:15:08;99754.84;;;13.95;100.00
15382;BME280;7789;51.364;12.358;2024-03-22T20:20:13;99756.50;;;13.88;100.00
15382;BME280;7789;51.364;12.358;2024-03-22T20:25:19;99753.72;;;13.90;100.00
15382;BME280;7789;51.364;12.358;2024-03-22T20:30:24;99760.94;;;13.88;100.00
15382;BME280;7789;51.364;12.358;2024-03-22T20:35:28;99755.47;;;13.73;100.00
